Time;durP1;ratioP1;P1;durP2;ratioP2;P2;SDS_P1;SDS_P2;PMS_P1;PMS_P2;Temp;Humidity;BMP_temperature;BMP_pressure;BME280_temperature;BME280_humidity;BME280_pressure;Samples;Min_cycle;Max_cycle;Signal;HPM_P1;HPM_P2
2024/03/12 00:01:25;;;;;;;12.02;8.25;;;;;;;;;;10291036;28;20079;-65
2024/03/12 00:06:25;;;;;;;10.20;7.70;;;;;;;;;;10293398;28;20083;-65
2024/03/12 00:11:24;;;;;;;12.70;8.35;;;;;;;;;;10291430;28;20088;-65
2024/03/12 00:16:23;;;;;;;14.00;8.63;;;;;;;;;;10294029;28;20087;-65
2024/03/12 00:21:22;;;;;;;17.70;8.48;;;;;;;;;;10293218;28;20546;-64
2024/03/12 00:26:22;;;;;;;10.55;8.32;;;;;;;;;;10291322;28;20077;-64
2024/03/12 00:31:20;;;;;;;11.15;7.80;;;;;;;;;;10290491;28;20072;-66
2024/03/12 00:36:19;;;;;;;9.27;7.78;;;;;;;;;;10298224;28;20916;-66
2024/03/12 00:41:17;;;;;;;10.68;7.20;;;;;;;;;;10299556;28;20068;-65
2024/03/12 00:46:17;;;;;;;7.00;6.35;;;;;;;;;;10299057;28;20072;-64
2024/03/12 00:51:18;;;;;;;9.38;7.07;;;;;;;;;;10297459;28;20095;-65
2024/03/12 00:56:16;;;;;;;9.13;6.72;;;;;;;;;;10299044;28;20083;-65
2024/03/12 01:01:15;;;;;;;13.43;8.38;;;;;;;;;;10299477;28;20072;-64
2024/03/12 01:06:15;;;;;;;9.13;7.60;;;;;;;;;;10299034;28;20073;-66
2024/03/12 01:11:14;;;;;;;9.23;7.07;;;;;;;;;;10297787;28;20517;-64
2024/03/12 01:16:14;;;;;;;10.63;7.45;;;;;;;;;;10297023;28;20091;-63
2024/03/12 01:21:14;;;;;;;9.27;7.38;;;;;;;;;;10298173;28;20079;-64
2024/03/12 01:26:13;;;;;;;9.52;6.88;;;;;;;;;;10296908;28;20099;-65
2024/03/12 01:31:11;;;;;;;11.70;7.00;;;;;;;;;;10295657;28;20080;-65
2024/03/12 01:36:20;;;;;;;8.05;7.28;;;;;;;;;;10299130;28;20088;-64
2024/03/12 01:41:20;;;;;;;8.10;6.82;;;;;;;;;;10294370;28;20060;-65
2024/03/12 01:46:18;;;;;;;9.18;7.45;;;;;;;;;;10295797;28;20091;-65
2024/03/12 01:51:17;;;;;;;10.98;7.55;;;;;;;;;;10296566;28;20076;-64
2024/03/12 01:56:17;;;;;;;8.02;6.05;;;;;;;;;;10297544;28;22426;-65
2024/03/12 02:01:19;;;;;;;8.65;7.38;;;;;;;;;;10296240;28;20064;-64
2024/03/12 02:06:19;;;;;;;9.93;6.93;;;;;;;;;;10295569;28;20064;-65
2024/03/12 02:11:17;;;;;;;12.70;7.50;;;;;;;;;;10297410;28;20084;-65
2024/03/12 02:16:17;;;;;;;9.45;7.57;;;;;;;;;;10294801;28;20076;-65
2024/03/12 02:21:16;;;;;;;10.63;6.85;;;;;;;;;;10294493;28;20080;-64
2024/03/12 02:26:16;;;;;;;11.88;7.97;;;;;;;;;;10296348;28;20103;-65
2024/03/12 02:31:14;;;;;;;11.27;7.55;;;;;;;;;;10294368;28;20549;-66
2024/03/12 02:36:13;;;;;;;9.85;7.63;;;;;;;;;;10294282;28;20711;-65
2024/03/12 02:41:11;;;;;;;15.63;8.05;;;;;;;;;;10293610;28;20081;-63
2024/03/12 02:46:11;;;;;;;16.77;8.48;;;;;;;;;;10294394;28;20068;-66
2024/03/12 02:51:10;;;;;;;8.90;8.00;;;;;;;;;;10293098;28;20081;-65
2024/03/12 02:56:08;;;;;;;10.55;7.30;;;;;;;;;;10294442;28;20576;-64
2024/03/12 03:01:06;;;;;;;14.95;8.43;;;;;;;;;;10295689;28;20457;-64
2024/03/12 03:06:07;;;;;;;16.95;7.93;;;;;;;;;;10293828;28;20087;-65
2024/03/12 03:11:06;;;;;;;9.85;7.03;;;;;;;;;;10292284;28;20095;-65
2024/03/12 03:16:05;;;;;;;10.00;6.70;;;;;;;;;;10292844;28;20049;-65
2024/03/12 03:21:04;;;;;;;10.00;7.47;;;;;;;;;;10291954;28;20656;-65
2024/03/12 03:26:04;;;;;;;12.48;7.63;;;;;;;;;;10293458;28;20076;-64
2024/03/12 03:31:02;;;;;;;11.40;7.60;;;;;;;;;;10294805;28;20514;-65
2024/03/12 03:36:01;;;;;;;9.93;7.15;;;;;;;;;;10292473;28;20091;-65
2024/03/12 03:40:59;;;;;;;9.75;7.40;;;;;;;;;;10292779;28;20073;-64
2024/03/12 03:45:59;;;;;;;12.45;7.68;;;;;;;;;;10293239;28;20494;-64
2024/03/12 03:50:58;;;;;;;9.40;7.65;;;;;;;;;;10292112;28;20072;-64
2024/03/12 03:55:56;;;;;;;10.35;7.88;;;;;;;;;;10293596;28;20072;-65
2024/03/12 04:00:55;;;;;;;25.60;16.15;;;;;;;;;;10290863;28;20077;-64
2024/03/12 04:05:56;;;;;;;17.13;10.60;;;;;;;;;;10293187;28;20074;-65
2024/03/12 04:10:55;;;;;;;11.18;7.18;;;;;;;;;;10296560;28;20091;-65
2024/03/12 04:15:55;;;;;;;10.55;7.63;;;;;;;;;;10300389;28;20052;-65
2024/03/12 04:20:55;;;;;;;10.18;8.07;;;;;;;;;;10298620;28;20076;-65
2024/03/12 04:25:54;;;;;;;12.25;9.65;;;;;;;;;;10301241;28;20092;-65
2024/03/12 04:30:52;;;;;;;8.90;7.20;;;;;;;;;;10301135;28;20072;-65
2024/03/12 04:35:52;;;;;;;11.02;7.88;;;;;;;;;;10299183;28;20068;-66
2024/03/12 04:40:51;;;;;;;10.25;7.68;;;;;;;;;;10299014;28;20060;-65
2024/03/12 04:45:50;;;;;;;13.93;9.35;;;;;;;;;;10292164;28;20076;-64
2024/03/12 04:50:49;;;;;;;13.73;8.20;;;;;;;;;;10295913;28;20077;-64
2024/03/12 04:55:47;;;;;;;13.40;7.80;;;;;;;;;;10301759;28;20071;-65
2024/03/12 05:00:47;;;;;;;12.10;8.50;;;;;;;;;;10297980;28;20470;-65
2024/03/12 05:05:46;;;;;;;10.27;8.10;;;;;;;;;;10299047;28;20085;-64
2024/03/12 05:10:45;;;;;;;12.63;8.05;;;;;;;;;;10296191;28;20091;-64
2024/03/12 05:15:44;;;;;;;10.40;7.78;;;;;;;;;;10299886;28;20084;-65
2024/03/12 05:20:44;;;;;;;10.80;7.95;;;;;;;;;;10294910;28;20072;-65
2024/03/12 05:25:45;;;;;;;8.80;7.53;;;;;;;;;;10299743;28;20302;-64
2024/03/12 05:30:43;;;;;;;13.63;10.63;;;;;;;;;;10298280;28;20088;-65
2024/03/12 05:35:47;;;;;;;11.60;8.60;;;;;;;;;;10293460;28;20064;-64
2024/03/12 05:40:57;;;;;;;10.13;7.23;;;;;;;;;;10299157;28;20071;-65
2024/03/12 05:51:12;;;;;;;26.48;8.55;;;;;;;;;;10292661;28;20072;-65
2024/03/12 05:56:12;;;;;;;11.32;8.07;;;;;;;;;;10291664;28;20065;-65
2024/03/12 06:01:15;;;;;;;17.25;12.40;;;;;;;;;;10292242;28;20458;-64
2024/03/12 06:06:15;;;;;;;12.40;10.85;;;;;;;;;;10292092;28;20080;-66
2024/03/12 06:11:16;;;;;;;22.88;19.98;;;;;;;;;;10277100;28;20086;-66
2024/03/12 06:16:18;;;;;;;13.55;11.30;;;;;;;;;;10294588;28;20083;-65
2024/03/12 06:21:19;;;;;;;10.02;8.85;;;;;;;;;;10294934;28;20069;-64
2024/03/12 06:26:19;;;;;;;12.50;11.20;;;;;;;;;;10296615;28;20068;-65
2024/03/12 06:31:19;;;;;;;13.90;11.15;;;;;;;;;;10296609;28;20077;-66
2024/03/12 06:36:17;;;;;;;15.73;10.98;;;;;;;;;;10293060;28;20072;-66
2024/03/12 06:41:16;;;;;;;18.00;13.00;;;;;;;;;;10292369;28;22096;-66
2024/03/12 06:46:19;;;;;;;17.35;13.73;;;;;;;;;;10294097;28;20068;-66
2024/03/12 06:51:18;;;;;;;15.70;14.00;;;;;;;;;;10293509;28;20438;-66
2024/03/12 06:56:17;;;;;;;18.60;16.20;;;;;;;;;;10297543;28;20092;-65
2024/03/12 07:01:19;;;;;;;20.13;16.05;;;;;;;;;;10292512;28;20072;-65
2024/03/12 07:06:19;;;;;;;19.83;17.60;;;;;;;;;;10293357;28;20068;-65
2024/03/12 07:11:19;;;;;;;18.20;15.50;;;;;;;;;;10292946;28;20095;-66
2024/03/12 07:16:19;;;;;;;20.10;16.00;;;;;;;;;;10293487;28;20079;-65
2024/03/12 07:21:18;;;;;;;18.08;15.70;;;;;;;;;;10294359;28;20067;-65
2024/03/12 07:26:17;;;;;;;21.23;15.75;;;;;;;;;;10292556;28;20480;-65
2024/03/12 07:31:16;;;;;;;21.23;18.98;;;;;;;;;;10277931;28;20473;-65
2024/03/12 07:36:16;;;;;;;18.48;14.65;;;;;;;;;;10292594;28;20087;-66
2024/03/12 07:41:15;;;;;;;17.73;13.50;;;;;;;;;;10292581;28;20072;-65
2024/03/12 07:46:14;;;;;;;17.33;12.93;;;;;;;;;;10293289;28;20076;-66
2024/03/12 07:51:13;;;;;;;12.20;10.52;;;;;;;;;;10293200;28;20076;-66
2024/03/12 07:56:14;;;;;;;18.40;14.70;;;;;;;;;;10293770;28;20079;-64
2024/03/12 08:01:12;;;;;;;18.80;16.55;;;;;;;;;;10292924;28;20068;-65
2024/03/12 08:06:12;;;;;;;17.08;14.18;;;;;;;;;;10291955;28;20076;-65
2024/03/12 08:11:11;;;;;;;14.60;12.13;;;;;;;;;;10294291;28;20077;-66
2024/03/12 08:16:11;;;;;;;13.73;11.45;;;;;;;;;;10292080;28;20144;-65
2024/03/12 08:21:09;;;;;;;23.10;18.45;;;;;;;;;;10292089;28;20082;-66
2024/03/12 08:26:08;;;;;;;26.48;20.33;;;;;;;;;;10293564;28;20493;-66
2024/03/12 08:31:07;;;;;;;19.95;17.20;;;;;;;;;;10294246;28;20083;-66
2024/03/12 08:36:17;;;;;;;20.13;16.70;;;;;;;;;;10292461;28;20075;-66
2024/03/12 08:41:16;;;;;;;17.50;15.60;;;;;;;;;;10292943;28;20064;-66
2024/03/12 08:46:16;;;;;;;15.38;12.65;;;;;;;;;;10290749;28;20072;-65
2024/03/12 08:51:14;;;;;;;16.67;14.88;;;;;;;;;;10293967;28;20667;-65
2024/03/12 08:56:14;;;;;;;15.00;13.15;;;;;;;;;;10296508;28;20080;-65
2024/03/12 09:01:13;;;;;;;17.60;15.77;;;;;;;;;;10297474;28;20041;-65
2024/03/12 09:06:11;;;;;;;17.08;13.40;;;;;;;;;;10301505;28;20079;-66
2024/03/12 09:11:15;;;;;;;16.30;14.65;;;;;;;;;;10298424;28;20076;-64
2024/03/12 09:16:16;;;;;;;16.10;14.37;;;;;;;;;;10298197;28;20083;-65
2024/03/12 09:21:14;;;;;;;18.30;16.17;;;;;;;;;;10297885;28;20080;-66
2024/03/12 09:26:13;;;;;;;21.08;18.65;;;;;;;;;;10297552;28;20072;-66
2024/03/12 09:31:12;;;;;;;16.40;14.10;;;;;;;;;;10297371;28;20076;-65
2024/03/12 09:36:14;;;;;;;28.02;25.30;;;;;;;;;;10296589;28;20091;-65
2024/03/12 09:41:16;;;;;;;18.55;16.17;;;;;;;;;;10295497;28;20084;-66
2024/03/12 09:46:16;;;;;;;17.15;15.35;;;;;;;;;;10295489;28;20163;-66
2024/03/12 09:51:17;;;;;;;17.23;15.05;;;;;;;;;;10285639;28;20080;-66
2024/03/12 09:56:17;;;;;;;19.00;16.95;;;;;;;;;;10296320;28;20095;-65
2024/03/12 10:01:16;;;;;;;16.73;14.93;;;;;;;;;;10295898;28;20433;-66
2024/03/12 10:06:16;;;;;;;19.10;12.82;;;;;;;;;;10295946;28;20092;-66
2024/03/12 10:11:25;;;;;;;16.08;11.25;;;;;;;;;;10295002;28;20084;-67
2024/03/12 10:16:25;;;;;;;21.52;19.35;;;;;;;;;;10294660;28;20075;-64
2024/03/12 10:21:24;;;;;;;12.95;11.57;;;;;;;;;;10295618;28;20071;-67
2024/03/12 10:26:25;;;;;;;12.82;11.10;;;;;;;;;;10296616;28;20069;-65
2024/03/12 10:31:30;;;;;;;21.10;17.58;;;;;;;;;;10295709;28;20091;-65
2024/03/12 10:36:29;;;;;;;9.82;8.82;;;;;;;;;;10283836;28;20056;-66
2024/03/12 10:41:28;;;;;;;11.35;7.53;;;;;;;;;;10295879;28;20080;-65
2024/03/12 10:46:28;;;;;;;10.63;9.52;;;;;;;;;;10293881;28;20443;-67
2024/03/12 10:51:27;;;;;;;12.10;9.48;;;;;;;;;;10293678;28;20110;-65
2024/03/12 10:56:26;;;;;;;18.10;14.63;;;;;;;;;;10293851;28;20075;-65
2024/03/12 11:01:25;;;;;;;33.50;30.40;;;;;;;;;;10294437;28;20068;-65
2024/03/12 11:06:26;;;;;;;25.10;22.58;;;;;;;;;;10294679;28;20754;-65
2024/03/12 11:11:26;;;;;;;55.80;50.88;;;;;;;;;;10291176;28;20088;-65
2024/03/12 11:16:31;;;;;;;17.35;13.88;;;;;;;;;;10293631;28;20080;-65
2024/03/12 11:21:35;;;;;;;8.98;8.13;;;;;;;;;;10293238;28;20095;-66
2024/03/12 11:26:35;;;;;;;20.83;15.47;;;;;;;;;;10293076;28;20447;-65
2024/03/12 11:31:39;;;;;;;14.73;11.05;;;;;;;;;;10294093;28;20868;-66
2024/03/12 11:36:46;;;;;;;12.57;9.77;;;;;;;;;;10292293;28;20069;-66
2024/03/12 11:42:05;;;;;;;44.88;36.28;;;;;;;;;;10293829;28;20076;-66
2024/03/12 11:47:06;;;;;;;23.85;17.02;;;;;;;;;;10294991;28;20131;-66
2024/03/12 11:52:07;;;;;;;12.50;11.30;;;;;;;;;;10291752;28;20533;-65
2024/03/12 11:57:17;;;;;;;21.95;13.15;;;;;;;;;;10293493;28;20080;-66
2024/03/12 12:02:20;;;;;;;12.15;10.95;;;;;;;;;;10291505;28;20063;-66
2024/03/12 12:07:21;;;;;;;10.98;9.88;;;;;;;;;;10292194;28;20422;-67
2024/03/12 12:12:19;;;;;;;10.75;9.68;;;;;;;;;;10293932;28;20099;-66
2024/03/12 12:17:21;;;;;;;17.38;9.88;;;;;;;;;;10292344;28;20549;-66
2024/03/12 12:22:21;;;;;;;13.18;9.80;;;;;;;;;;10293013;28;20068;-66
2024/03/12 12:27:21;;;;;;;9.82;8.70;;;;;;;;;;10292647;28;20075;-66
2024/03/12 12:32:20;;;;;;;11.85;9.00;;;;;;;;;;10296986;28;20406;-66
2024/03/12 12:37:21;;;;;;;12.23;9.80;;;;;;;;;;10300061;28;20071;-66
2024/03/12 12:42:23;;;;;;;11.38;10.27;;;;;;;;;;10299320;28;20048;-66
2024/03/12 12:47:22;;;;;;;9.07;8.18;;;;;;;;;;10300602;28;20064;-66
2024/03/12 12:52:23;;;;;;;11.77;9.05;;;;;;;;;;10299848;28;20072;-66
2024/03/12 12:57:23;;;;;;;13.40;10.90;;;;;;;;;;10297933;28;20072;-66
2024/03/12 13:02:22;;;;;;;10.25;8.85;;;;;;;;;;10299199;28;20091;-66
2024/03/12 13:07:28;;;;;;;14.13;11.27;;;;;;;;;;10298971;28;20528;-66
2024/03/12 13:12:28;;;;;;;13.80;9.90;;;;;;;;;;10297613;28;20132;-65
2024/03/12 13:17:26;;;;;;;14.88;11.85;;;;;;;;;;10298325;28;20451;-65
2024/03/12 13:22:25;;;;;;;10.85;9.85;;;;;;;;;;10299242;28;20760;-65
2024/03/12 13:27:30;;;;;;;12.35;11.15;;;;;;;;;;10298543;28;20072;-65
2024/03/12 13:32:28;;;;;;;12.27;11.10;;;;;;;;;;10297991;28;20491;-65
2024/03/12 13:37:29;;;;;;;12.13;10.95;;;;;;;;;;10300675;28;20090;-65
2024/03/12 13:42:28;;;;;;;12.32;10.95;;;;;;;;;;10296703;28;20541;-65
2024/03/12 13:47:28;;;;;;;13.30;10.98;;;;;;;;;;10297610;28;20671;-65
2024/03/12 13:52:27;;;;;;;15.05;12.38;;;;;;;;;;10297952;28;20073;-66
2024/03/12 13:57:28;;;;;;;14.05;12.55;;;;;;;;;;10296690;28;20638;-65
2024/03/12 14:02:28;;;;;;;17.73;13.75;;;;;;;;;;10297873;28;20485;-65
2024/03/12 14:07:26;;;;;;;19.10;15.35;;;;;;;;;;10296050;28;20517;-66
2024/03/12 14:12:24;;;;;;;17.73;13.73;;;;;;;;;;10296150;28;20088;-65
2024/03/12 14:17:23;;;;;;;16.58;13.80;;;;;;;;;;10296589;28;20067;-65
2024/03/12 14:22:23;;;;;;;34.45;28.40;;;;;;;;;;10295983;28;20068;-65
2024/03/12 14:27:21;;;;;;;39.25;32.83;;;;;;;;;;10296364;28;20072;-66
2024/03/12 14:32:20;;;;;;;31.63;23.98;;;;;;;;;;10296438;28;20084;-65
2024/03/12 14:37:19;;;;;;;19.58;17.58;;;;;;;;;;10295240;28;20069;-66
2024/03/12 14:42:22;;;;;;;18.70;16.90;;;;;;;;;;10295713;28;20072;-65
2024/03/12 14:47:20;;;;;;;15.43;13.80;;;;;;;;;;10295138;28;20075;-65
2024/03/12 14:52:22;;;;;;;15.75;14.23;;;;;;;;;;10295645;28;20457;-65
2024/03/12 14:57:22;;;;;;;20.50;18.40;;;;;;;;;;10295292;28;20080;-65
2024/03/12 15:02:20;;;;;;;25.25;22.02;;;;;;;;;;10293551;28;20080;-66
2024/03/12 15:07:19;;;;;;;22.48;20.08;;;;;;;;;;10292983;28;20071;-66
2024/03/12 15:12:18;;;;;;;32.33;27.65;;;;;;;;;;10294664;28;20836;-65
2024/03/12 15:17:21;;;;;;;43.40;33.58;;;;;;;;;;10296229;28;20067;-65
2024/03/12 15:22:20;;;;;;;33.97;29.40;;;;;;;;;;10292093;28;20534;-65
2024/03/12 15:27:18;;;;;;;17.80;16.00;;;;;;;;;;10293367;28;20064;-67
2024/03/12 15:32:17;;;;;;;20.52;18.42;;;;;;;;;;10293336;28;20091;-65
2024/03/12 15:37:17;;;;;;;19.08;16.80;;;;;;;;;;10299064;28;20067;-64
2024/03/12 15:42:15;;;;;;;19.13;17.25;;;;;;;;;;10298557;28;20075;-65
2024/03/12 15:47:14;;;;;;;23.48;20.95;;;;;;;;;;10293966;28;20064;-65
2024/03/12 15:52:12;;;;;;;24.52;20.55;;;;;;;;;;10291760;28;20075;-64
2024/03/12 15:57:16;;;;;;;20.52;18.63;;;;;;;;;;10295095;28;20501;-65
2024/03/12 16:02:15;;;;;;;22.50;20.40;;;;;;;;;;10292014;28;20072;-64
2024/03/12 16:07:14;;;;;;;22.98;20.65;;;;;;;;;;10294863;28;20068;-65
2024/03/12 16:12:14;;;;;;;25.70;23.00;;;;;;;;;;10302296;28;20083;-66
2024/03/12 16:17:13;;;;;;;24.33;21.77;;;;;;;;;;10300214;28;20095;-63
2024/03/12 16:22:11;;;;;;;32.60;26.45;;;;;;;;;;10303541;28;20064;-63
2024/03/12 16:27:10;;;;;;;30.60;24.88;;;;;;;;;;10302205;28;20485;-66
2024/03/12 16:32:13;;;;;;;27.33;24.45;;;;;;;;;;10299081;28;20118;-65
2024/03/12 16:37:13;;;;;;;45.08;31.08;;;;;;;;;;10304151;28;20076;-64
2024/03/12 16:42:12;;;;;;;34.22;29.38;;;;;;;;;;10301214;28;20490;-65
2024/03/12 16:47:14;;;;;;;26.77;23.88;;;;;;;;;;10304191;28;20075;-65
2024/03/12 16:52:13;;;;;;;18.30;16.40;;;;;;;;;;10302932;28;20083;-66
2024/03/12 16:57:12;;;;;;;21.45;19.25;;;;;;;;;;10297955;28;20076;-66
2024/03/12 17:02:15;;;;;;;19.80;17.88;;;;;;;;;;10300890;28;20080;-65
2024/03/12 17:07:17;;;;;;;17.25;15.45;;;;;;;;;;10299354;28;20510;-64
2024/03/12 17:12:19;;;;;;;31.70;24.30;;;;;;;;;;10299728;28;20083;-67
2024/03/12 17:17:22;;;;;;;25.52;22.77;;;;;;;;;;10297784;28;20064;-64
2024/03/12 17:22:21;;;;;;;22.95;20.20;;;;;;;;;;10293533;28;20044;-66
2024/03/12 17:27:20;;;;;;;22.35;19.38;;;;;;;;;;10290328;28;20072;-65
2024/03/12 17:32:20;;;;;;;28.70;23.17;;;;;;;;;;10290199;28;20509;-66
2024/03/12 17:37:20;;;;;;;19.73;17.73;;;;;;;;;;10293569;28;20094;-66
2024/03/12 17:42:20;;;;;;;25.48;22.17;;;;;;;;;;10288313;28;20087;-66
2024/03/12 17:47:21;;;;;;;19.67;17.05;;;;;;;;;;10289883;28;20080;-64
2024/03/12 17:52:20;;;;;;;22.38;19.83;;;;;;;;;;10290129;28;20072;-66
2024/03/12 17:57:19;;;;;;;25.65;22.98;;;;;;;;;;10297214;28;20075;-66
2024/03/12 18:02:18;;;;;;;33.50;24.60;;;;;;;;;;10297610;28;20061;-66
2024/03/12 18:07:22;;;;;;;32.88;24.38;;;;;;;;;;10299031;28;20072;-66
2024/03/12 18:12:23;;;;;;;28.98;25.75;;;;;;;;;;10297750;28;20080;-67
2024/03/12 18:17:23;;;;;;;24.85;22.25;;;;;;;;;;10297962;28;20073;-67
2024/03/12 18:22:23;;;;;;;24.58;22.08;;;;;;;;;;10295370;28;20084;-66
2024/03/12 18:27:22;;;;;;;30.75;25.58;;;;;;;;;;10296381;28;20080;-66
2024/03/12 18:32:20;;;;;;;34.15;25.48;;;;;;;;;;10293687;28;20064;-66
2024/03/12 18:37:19;;;;;;;18.55;16.58;;;;;;;;;;10294797;28;20076;-66
2024/03/12 18:42:20;;;;;;;18.95;16.48;;;;;;;;;;10295187;28;20061;-66
2024/03/12 18:47:19;;;;;;;19.25;16.80;;;;;;;;;;10294789;28;20072;-66
2024/03/12 18:52:17;;;;;;;22.20;18.02;;;;;;;;;;10296876;28;20741;-65
2024/03/12 18:57:16;;;;;;;29.17;22.30;;;;;;;;;;10299140;28;20088;-66
2024/03/12 19:02:24;;;;;;;20.25;18.13;;;;;;;;;;10293290;28;20072;-65
2024/03/12 19:07:23;;;;;;;23.00;18.30;;;;;;;;;;10287338;28;20076;-67
2024/03/12 19:12:22;;;;;;;89.43;58.80;;;;;;;;;;10290192;28;20084;-66
2024/03/12 19:17:22;;;;;;;41.65;33.83;;;;;;;;;;10294952;28;20068;-65
2024/03/12 19:22:20;;;;;;;26.88;22.83;;;;;;;;;;10286004;28;20072;-63
2024/03/12 19:27:23;;;;;;;24.67;20.92;;;;;;;;;;10289128;28;20076;-65
2024/03/12 19:32:30;;;;;;;39.88;29.30;;;;;;;;;;10294100;28;20061;-63
2024/03/12 19:37:32;;;;;;;24.63;22.13;;;;;;;;;;10299418;28;20505;-64
2024/03/12 19:42:30;;;;;;;19.83;17.75;;;;;;;;;;10286100;28;20528;-64
2024/03/12 19:47:32;;;;;;;23.25;20.80;;;;;;;;;;10286953;28;20072;-65
2024/03/12 19:52:31;;;;;;;18.75;16.80;;;;;;;;;;10286406;28;20091;-66
2024/03/12 19:57:30;;;;;;;19.83;17.73;;;;;;;;;;10293604;28;20083;-66
2024/03/12 20:02:29;;;;;;;19.20;17.27;;;;;;;;;;10292515;28;20084;-65
2024/03/12 20:07:30;;;;;;;19.05;17.05;;;;;;;;;;10292467;28;20169;-66
2024/03/12 20:12:30;;;;;;;23.42;19.38;;;;;;;;;;10280589;28;20076;-64
2024/03/12 20:17:28;;;;;;;21.98;19.67;;;;;;;;;;10289058;28;20073;-65
2024/03/12 20:22:31;;;;;;;21.08;18.75;;;;;;;;;;10286180;28;20076;-64
2024/03/12 20:27:29;;;;;;;22.23;19.80;;;;;;;;;;10292526;28;21031;-65
2024/03/12 20:32:28;;;;;;;22.27;19.88;;;;;;;;;;10294247;28;20084;-65
2024/03/12 20:37:28;;;;;;;24.95;21.98;;;;;;;;;;10291468;28;20537;-66
2024/03/12 20:42:28;;;;;;;22.75;18.77;;;;;;;;;;10292255;28;20072;-66
2024/03/12 20:47:32;;;;;;;40.15;32.30;;;;;;;;;;10291537;28;20083;-65
2024/03/12 20:52:33;;;;;;;22.35;19.65;;;;;;;;;;10294560;28;20071;-65
2024/03/12 20:57:33;;;;;;;32.45;25.45;;;;;;;;;;10298279;28;20525;-66
2024/03/12 21:02:32;;;;;;;28.80;23.60;;;;;;;;;;10299433;28;20068;-65
2024/03/12 21:07:31;;;;;;;27.20;21.13;;;;;;;;;;10297862;28;20076;-65
2024/03/12 21:12:31;;;;;;;26.75;23.60;;;;;;;;;;10297676;28;20085;-64
2024/03/12 21:17:31;;;;;;;22.88;20.20;;;;;;;;;;10300654;28;20073;-64
2024/03/12 21:22:29;;;;;;;24.45;18.02;;;;;;;;;;10298584;28;20045;-65
2024/03/12 21:27:28;;;;;;;23.45;20.40;;;;;;;;;;10298060;28;20533;-64
2024/03/12 21:32:26;;;;;;;24.67;19.70;;;;;;;;;;10296663;28;20066;-66
2024/03/12 21:37:26;;;;;;;25.25;20.25;;;;;;;;;;10299083;28;20079;-65
2024/03/12 21:42:25;;;;;;;24.48;19.42;;;;;;;;;;10297535;28;20080;-65
2024/03/12 21:47:24;;;;;;;25.63;20.42;;;;;;;;;;10296634;28;20068;-65
2024/03/12 21:52:22;;;;;;;23.45;19.13;;;;;;;;;;10298724;28;20060;-65
2024/03/12 21:57:22;;;;;;;24.98;20.30;;;;;;;;;;10297529;28;20075;-65
2024/03/12 22:02:21;;;;;;;26.80;23.92;;;;;;;;;;10296851;28;20056;-64
2024/03/12 22:07:19;;;;;;;26.58;21.08;;;;;;;;;;10295464;28;20076;-65
2024/03/12 22:12:18;;;;;;;22.13;19.75;;;;;;;;;;10296185;28;20087;-65
2024/03/12 22:17:18;;;;;;;24.65;19.65;;;;;;;;;;10295623;28;20517;-64
2024/03/12 22:22:16;;;;;;;23.20;20.83;;;;;;;;;;10296292;28;20083;-65
2024/03/12 22:27:16;;;;;;;24.80;22.23;;;;;;;;;;10296670;28;20227;-64
2024/03/12 22:32:20;;;;;;;25.33;21.17;;;;;;;;;;10293102;28;20072;-64
2024/03/12 22:37:20;;;;;;;29.05;24.77;;;;;;;;;;10294890;28;20491;-65
2024/03/12 22:42:19;;;;;;;26.95;22.02;;;;;;;;;;10295694;28;20068;-65
2024/03/12 22:47:18;;;;;;;26.35;21.00;;;;;;;;;;10294858;28;20697;-65
2024/03/12 22:52:18;;;;;;;27.15;21.58;;;;;;;;;;10294443;28;20068;-64
2024/03/12 22:57:19;;;;;;;27.02;20.55;;;;;;;;;;10282318;28;20084;-64
2024/03/12 23:02:18;;;;;;;29.67;25.00;;;;;;;;;;10294242;28;20075;-65
2024/03/12 23:07:18;;;;;;;26.90;21.63;;;;;;;;;;10294982;28;20072;-64
2024/03/12 23:12:18;;;;;;;26.63;21.75;;;;;;;;;;10295293;28;20517;-65
2024/03/12 23:17:16;;;;;;;25.35;20.98;;;;;;;;;;10291076;28;20076;-64
2024/03/12 23:22:15;;;;;;;25.83;20.75;;;;;;;;;;10299414;28;20060;-66
2024/03/12 23:27:14;;;;;;;26.38;20.90;;;;;;;;;;10295126;28;20060;-66
2024/03/12 23:32:14;;;;;;;28.63;21.33;;;;;;;;;;10293691;28;20064;-65
2024/03/12 23:37:13;;;;;;;24.05;19.40;;;;;;;;;;10294031;28;20076;-64
2024/03/12 23:42:11;;;;;;;30.13;25.05;;;;;;;;;;10294087;28;20075;-65
2024/03/12 23:47:10;;;;;;;24.25;20.55;;;;;;;;;;10294275;28;20075;-65
2024/03/12 23:52:10;;;;;;;28.27;21.10;;;;;;;;;;10292809;28;20162;-65
2024/03/12 23:57:12;;;;;;;27.30;19.83;;;;;;;;;;10293416;28;20085;-64
